AL03 weather

Alessandria Airport
Alessandria, Piedmont, Italy

Public forecast

Using degrees Celsius for public forecast. Weather courtesy of forecast.io.

METAR (pilot weather report)

Closest report is Genoa Cristoforo Colombo Airport, 32.0 nm (59.3 km) SSE. Retrieved 2019/05/21 00:20 UTC (18 minutes ago):

LIMJ 210020Z 11008KT 9999 SCT022 SCT040 15/11 Q1009

TAF (pilot weather forecast)

Forecast is more than 12 hours old.

Closest forecast is Genoa Cristoforo Colombo Airport, 32.0 nm (59.3 km) SSE. Retrieved 2019/05/20 00:00 UTC (1 day ago):

TAF LIMJ 202300Z 2100/2124 14010KT 9999 BKN030